KBVS Airport Information

Runway Information
Runway 04 Length 3000 ft width 60 ft
Elevation 84 ft Threshold 0 ft Heading 56
Runway 22 Length 3000 ft Width 60 ft
Elevation 97 ft Threshold 0 ft Heading 236
Runway 10 Length 5477 ft width 100 ft
Elevation 144 ft Threshold 0 ft Heading 126
Runway 28 Length 5477 ft Width 100 ft
Elevation 98 ft Threshold 0 ft Heading 306
Airport Frequencies
Type A/D Name WHIDBEY AP Frequency 120.7 MHZ
Type AWOS Name AWOS 3 Frequency 121.125 MHZ
Type UNIC Name CTAF/UNICO Frequency 123.075 MHZ
Airport Navaids
Airport Weather Information & NOTAM
ADDS - METARS form results

(1139 UTC 21 April 2018)
 
METAR text: KBVS 211135Z AUTO 21005KT 10SM SCT018 OVC027 09/07 A3021 RMK A01
Conditions at: KBVS (BURLINGTON/MT V , WA, US) observed 1135 UTC 21 April 2018
Temperature: 9.0°C (48°F)
Dewpoint: 7.0°C (45°F) [RH = 87%]
Pressure (altimeter): 30.21 inches Hg (1023.1 mb)
Winds: from the SSW (210 degrees) at 6 MPH (5 knots; 2.6 m/s)
Visibility: 10 or more miles (16+ km)
Ceiling: 2700 feet AGL
Clouds: scattered clouds at 1800 feet AGL
overcast cloud deck at 2700 feet AGL
Weather: automated observation with no human augmentation;
there may or may not be significant weather present at this time

METAR text: KBVS 211115Z AUTO 19007KT 10SM OVC019 09/06 A3019 RMK A01
Conditions at: KBVS (BURLINGTON/MT V , WA, US) observed 1115 UTC 21 April 2018
Temperature: 9.0°C (48°F)
Dewpoint: 6.0°C (43°F) [RH = 81%]
Pressure (altimeter): 30.19 inches Hg (1022.4 mb)
Winds: from the S (190 degrees) at 8 MPH (7 knots; 3.6 m/s)
Visibility: 10 or more miles (16+ km)
Ceiling: 1900 feet AGL
Clouds: overcast cloud deck at 1900 feet AGL
Weather: automated observation with no human augmentation;
there may or may not be significant weather present at this time

METAR text: KBVS 211055Z AUTO 17007KT 10SM OVC022 09/06 A3018 RMK A01
Conditions at: KBVS (BURLINGTON/MT V , WA, US) observed 1055 UTC 21 April 2018
Temperature: 9.0°C (48°F)
Dewpoint: 6.0°C (43°F) [RH = 81%]
Pressure (altimeter): 30.18 inches Hg (1022.1 mb)
Winds: from the S (170 degrees) at 8 MPH (7 knots; 3.6 m/s)
Visibility: 10 or more miles (16+ km)
Ceiling: 2200 feet AGL
Clouds: overcast cloud deck at 2200 feet AGL
Weather: automated observation with no human augmentation;
there may or may not be significant weather present at this time